sensor_id;sensor_type;location;lat;lon;timestamp;P1;durP1;ratioP1;P2;durP2;ratioP2
73859;SDS011;62197;51.632;13.700;2022-11-03T00:00:59;5.40;;;2.40;;
73859;SDS011;62197;51.632;13.700;2022-11-03T00:03:25;5.85;;;2.80;;
73859;SDS011;62197;51.632;13.700;2022-11-03T00:05:51;5.13;;;2.72;;
73859;SDS011;62197;51.632;13.700;2022-11-03T00:08:39;9.25;;;2.28;;
73859;SDS011;62197;51.632;13.700;2022-11-03T00:11:13;7.80;;;2.75;;
73859;SDS011;62197;51.632;13.700;2022-11-03T00:13:40;7.88;;;2.72;;
73859;SDS011;62197;51.632;13.700;2022-11-03T00:16:07;8.70;;;2.97;;
73859;SDS011;62197;51.632;13.700;2022-11-03T00:18:34;6.20;;;2.85;;
73859;SDS011;62197;51.632;13.700;2022-11-03T00:21:00;13.57;;;3.75;;
73859;SDS011;62197;51.632;13.700;2022-11-03T00:23:31;8.45;;;3.30;;
73859;SDS011;62197;51.632;13.700;2022-11-03T00:26:02;9.80;;;3.38;;
73859;SDS011;62197;51.632;13.700;2022-11-03T00:28:30;12.75;;;3.63;;
73859;SDS011;62197;51.632;13.700;2022-11-03T00:30:56;9.13;;;3.63;;
73859;SDS011;62197;51.632;13.700;2022-11-03T00:33:22;5.78;;;3.25;;
73859;SDS011;62197;51.632;13.700;2022-11-03T00:35:54;14.57;;;3.30;;
73859;SDS011;62197;51.632;13.700;2022-11-03T00:38:20;8.80;;;3.50;;
73859;SDS011;62197;51.632;13.700;2022-11-03T00:40:51;10.52;;;3.00;;
73859;SDS011;62197;51.632;13.700;2022-11-03T00:43:17;9.32;;;4.03;;
73859;SDS011;62197;51.632;13.700;2022-11-03T00:45:42;10.55;;;3.55;;
73859;SDS011;62197;51.632;13.700;2022-11-03T00:48:07;6.90;;;3.10;;
73859;SDS011;62197;51.632;13.700;2022-11-03T00:50:51;11.00;;;3.63;;
73859;SDS011;62197;51.632;13.700;2022-11-03T00:53:17;8.93;;;4.32;;
73859;SDS011;62197;51.632;13.700;2022-11-03T00:55:47;16.98;;;4.43;;
73859;SDS011;62197;51.632;13.700;2022-11-03T00:58:13;12.27;;;4.15;;
73859;SDS011;62197;51.632;13.700;2022-11-03T01:00:38;8.65;;;4.18;;
73859;SDS011;62197;51.632;13.700;2022-11-03T01:03:04;12.00;;;4.13;;
73859;SDS011;62197;51.632;13.700;2022-11-03T01:05:30;8.25;;;3.72;;
73859;SDS011;62197;51.632;13.700;2022-11-03T01:08:14;7.35;;;3.17;;
73859;SDS011;62197;51.632;13.700;2022-11-03T01:10:40;6.65;;;3.38;;
73859;SDS011;62197;51.632;13.700;2022-11-03T01:13:25;8.68;;;3.67;;
73859;SDS011;62197;51.632;13.700;2022-11-03T01:15:51;9.43;;;3.60;;
73859;SDS011;62197;51.632;13.700;2022-11-03T01:18:16;9.63;;;3.60;;
73859;SDS011;62197;51.632;13.700;2022-11-03T01:20:41;11.55;;;3.25;;
73859;SDS011;62197;51.632;13.700;2022-11-03T01:23:07;10.45;;;4.10;;
73859;SDS011;62197;51.632;13.700;2022-11-03T01:25:34;11.02;;;3.40;;
73859;SDS011;62197;51.632;13.700;2022-11-03T01:28:00;6.43;;;3.63;;
73859;SDS011;62197;51.632;13.700;2022-11-03T01:30:26;16.13;;;4.78;;
73859;SDS011;62197;51.632;13.700;2022-11-03T01:32:51;14.60;;;3.90;;
73859;SDS011;62197;51.632;13.700;2022-11-03T01:35:16;9.50;;;3.70;;
73859;SDS011;62197;51.632;13.700;2022-11-03T01:37:42;8.52;;;4.05;;
73859;SDS011;62197;51.632;13.700;2022-11-03T01:40:07;8.85;;;3.50;;
73859;SDS011;62197;51.632;13.700;2022-11-03T01:42:33;7.40;;;3.33;;
73859;SDS011;62197;51.632;13.700;2022-11-03T01:44:59;12.65;;;3.88;;
73859;SDS011;62197;51.632;13.700;2022-11-03T01:47:25;12.48;;;4.07;;
73859;SDS011;62197;51.632;13.700;2022-11-03T01:50:03;9.20;;;3.72;;
73859;SDS011;62197;51.632;13.700;2022-11-03T01:52:33;7.88;;;3.55;;
73859;SDS011;62197;51.632;13.700;2022-11-03T01:55:06;10.55;;;3.80;;
73859;SDS011;62197;51.632;13.700;2022-11-03T01:57:38;10.20;;;4.13;;
73859;SDS011;62197;51.632;13.700;2022-11-03T02:00:06;15.65;;;4.22;;
73859;SDS011;62197;51.632;13.700;2022-11-03T02:02:32;8.73;;;3.47;;
73859;SDS011;62197;51.632;13.700;2022-11-03T02:04:58;9.70;;;4.22;;
73859;SDS011;62197;51.632;13.700;2022-11-03T02:07:28;10.77;;;3.70;;
73859;SDS011;62197;51.632;13.700;2022-11-03T02:10:10;9.43;;;3.80;;
73859;SDS011;62197;51.632;13.700;2022-11-03T02:12:36;8.63;;;3.65;;
73859;SDS011;62197;51.632;13.700;2022-11-03T02:15:03;8.10;;;3.72;;
73859;SDS011;62197;51.632;13.700;2022-11-03T02:17:31;12.65;;;3.88;;
73859;SDS011;62197;51.632;13.700;2022-11-03T02:20:04;9.23;;;3.63;;
73859;SDS011;62197;51.632;13.700;2022-11-03T02:25:41;13.18;;;3.72;;
73859;SDS011;62197;51.632;13.700;2022-11-03T02:28:08;15.93;;;3.97;;
73859;SDS011;62197;51.632;13.700;2022-11-03T02:33:19;13.07;;;4.10;;
73859;SDS011;62197;51.632;13.700;2022-11-03T02:35:55;9.90;;;3.63;;
73859;SDS011;62197;51.632;13.700;2022-11-03T02:38:27;8.43;;;3.45;;
73859;SDS011;62197;51.632;13.700;2022-11-03T02:40:54;9.43;;;3.65;;
73859;SDS011;62197;51.632;13.700;2022-11-03T02:43:23;9.02;;;4.35;;
73859;SDS011;62197;51.632;13.700;2022-11-03T02:45:50;10.43;;;3.55;;
73859;SDS011;62197;51.632;13.700;2022-11-03T02:48:17;9.00;;;3.75;;
73859;SDS011;62197;51.632;13.700;2022-11-03T02:50:43;12.32;;;3.83;;
73859;SDS011;62197;51.632;13.700;2022-11-03T02:53:11;9.52;;;3.50;;
73859;SDS011;62197;51.632;13.700;2022-11-03T02:58:18;11.95;;;3.47;;
73859;SDS011;62197;51.632;13.700;2022-11-03T03:01:07;12.10;;;4.90;;
73859;SDS011;62197;51.632;13.700;2022-11-03T03:03:46;9.55;;;3.78;;
73859;SDS011;62197;51.632;13.700;2022-11-03T03:06:16;11.43;;;3.60;;
73859;SDS011;62197;51.632;13.700;2022-11-03T03:08:47;8.73;;;3.35;;
73859;SDS011;62197;51.632;13.700;2022-11-03T03:11:16;7.85;;;3.55;;
73859;SDS011;62197;51.632;13.700;2022-11-03T03:14:00;9.52;;;3.78;;
73859;SDS011;62197;51.632;13.700;2022-11-03T03:16:28;9.93;;;3.83;;
73859;SDS011;62197;51.632;13.700;2022-11-03T03:19:00;12.63;;;3.97;;
73859;SDS011;62197;51.632;13.700;2022-11-03T03:21:36;11.70;;;3.33;;
73859;SDS011;62197;51.632;13.700;2022-11-03T03:24:07;15.88;;;4.20;;
73859;SDS011;62197;51.632;13.700;2022-11-03T03:26:43;7.88;;;4.00;;
73859;SDS011;62197;51.632;13.700;2022-11-03T03:29:17;6.68;;;3.55;;
73859;SDS011;62197;51.632;13.700;2022-11-03T03:31:45;10.10;;;3.60;;
73859;SDS011;62197;51.632;13.700;2022-11-03T03:34:15;9.90;;;4.13;;
73859;SDS011;62197;51.632;13.700;2022-11-03T03:36:42;14.88;;;4.10;;
73859;SDS011;62197;51.632;13.700;2022-11-03T03:39:10;12.25;;;3.97;;
73859;SDS011;62197;51.632;13.700;2022-11-03T03:41:38;8.27;;;3.55;;
73859;SDS011;62197;51.632;13.700;2022-11-03T03:44:05;7.97;;;3.90;;
73859;SDS011;62197;51.632;13.700;2022-11-03T03:46:36;9.32;;;3.35;;
73859;SDS011;62197;51.632;13.700;2022-11-03T03:49:05;8.00;;;3.72;;
73859;SDS011;62197;51.632;13.700;2022-11-03T03:51:32;9.18;;;3.78;;
73859;SDS011;62197;51.632;13.700;2022-11-03T03:53:58;6.78;;;3.35;;
73859;SDS011;62197;51.632;13.700;2022-11-03T03:56:25;7.70;;;3.05;;
73859;SDS011;62197;51.632;13.700;2022-11-03T03:58:55;11.82;;;3.67;;
73859;SDS011;62197;51.632;13.700;2022-11-03T04:01:21;5.15;;;3.17;;
73859;SDS011;62197;51.632;13.700;2022-11-03T04:03:46;11.23;;;3.53;;
73859;SDS011;62197;51.632;13.700;2022-11-03T04:06:11;7.50;;;3.40;;
73859;SDS011;62197;51.632;13.700;2022-11-03T04:08:37;6.00;;;3.08;;
73859;SDS011;62197;51.632;13.700;2022-11-03T04:11:02;9.85;;;4.05;;
73859;SDS011;62197;51.632;13.700;2022-11-03T04:13:46;7.78;;;2.92;;
73859;SDS011;62197;51.632;13.700;2022-11-03T04:16:30;13.77;;;3.35;;
73859;SDS011;62197;51.632;13.700;2022-11-03T04:19:14;11.10;;;3.35;;
73859;SDS011;62197;51.632;13.700;2022-11-03T04:21:58;6.47;;;2.83;;
73859;SDS011;62197;51.632;13.700;2022-11-03T04:24:45;12.05;;;3.55;;
73859;SDS011;62197;51.632;13.700;2022-11-03T04:29:49;7.45;;;3.17;;
73859;SDS011;62197;51.632;13.700;2022-11-03T04:34:41;10.60;;;3.75;;
73859;SDS011;62197;51.632;13.700;2022-11-03T04:37:10;10.95;;;3.78;;
73859;SDS011;62197;51.632;13.700;2022-11-03T04:39:36;9.93;;;4.07;;
73859;SDS011;62197;51.632;13.700;2022-11-03T04:42:03;13.00;;;5.10;;
73859;SDS011;62197;51.632;13.700;2022-11-03T04:44:39;9.77;;;3.45;;
73859;SDS011;62197;51.632;13.700;2022-11-03T04:47:07;7.32;;;3.35;;
73859;SDS011;62197;51.632;13.700;2022-11-03T04:49:35;7.93;;;3.05;;
73859;SDS011;62197;51.632;13.700;2022-11-03T04:52:00;7.95;;;3.45;;
73859;SDS011;62197;51.632;13.700;2022-11-03T04:54:26;5.53;;;2.78;;
73859;SDS011;62197;51.632;13.700;2022-11-03T04:56:51;9.88;;;3.08;;
73859;SDS011;62197;51.632;13.700;2022-11-03T04:59:17;11.85;;;3.15;;
73859;SDS011;62197;51.632;13.700;2022-11-03T05:01:43;10.23;;;3.53;;
73859;SDS011;62197;51.632;13.700;2022-11-03T05:04:13;11.75;;;3.20;;
73859;SDS011;62197;51.632;13.700;2022-11-03T05:06:40;7.43;;;2.85;;
73859;SDS011;62197;51.632;13.700;2022-11-03T05:11:47;8.98;;;2.85;;
73859;SDS011;62197;51.632;13.700;2022-11-03T05:14:17;11.57;;;3.03;;
73859;SDS011;62197;51.632;13.700;2022-11-03T05:16:45;10.18;;;3.80;;
73859;SDS011;62197;51.632;13.700;2022-11-03T05:19:14;13.77;;;3.45;;
73859;SDS011;62197;51.632;13.700;2022-11-03T05:21:45;14.75;;;3.35;;
73859;SDS011;62197;51.632;13.700;2022-11-03T05:24:14;6.43;;;3.30;;
73859;SDS011;62197;51.632;13.700;2022-11-03T05:26:40;5.50;;;2.58;;
73859;SDS011;62197;51.632;13.700;2022-11-03T05:29:25;9.23;;;3.25;;
73859;SDS011;62197;51.632;13.700;2022-11-03T05:31:52;10.57;;;3.60;;
73859;SDS011;62197;51.632;13.700;2022-11-03T05:36:55;14.18;;;3.72;;
73859;SDS011;62197;51.632;13.700;2022-11-03T05:39:28;6.80;;;3.20;;
73859;SDS011;62197;51.632;13.700;2022-11-03T05:41:58;6.35;;;2.83;;
73859;SDS011;62197;51.632;13.700;2022-11-03T05:46:58;6.07;;;2.70;;
73859;SDS011;62197;51.632;13.700;2022-11-03T05:49:24;5.22;;;2.97;;
73859;SDS011;62197;51.632;13.700;2022-11-03T05:51:52;8.25;;;3.22;;
73859;SDS011;62197;51.632;13.700;2022-11-03T05:54:24;10.50;;;3.88;;
73859;SDS011;62197;51.632;13.700;2022-11-03T05:56:53;10.23;;;4.15;;
73859;SDS011;62197;51.632;13.700;2022-11-03T05:59:22;12.23;;;3.58;;
73859;SDS011;62197;51.632;13.700;2022-11-03T06:01:50;10.50;;;4.28;;
73859;SDS011;62197;51.632;13.700;2022-11-03T06:04:18;9.13;;;4.05;;
73859;SDS011;62197;51.632;13.700;2022-11-03T06:06:52;7.93;;;4.25;;
73859;SDS011;62197;51.632;13.700;2022-11-03T06:09:20;9.48;;;3.55;;
73859;SDS011;62197;51.632;13.700;2022-11-03T06:11:48;11.48;;;3.10;;
73859;SDS011;62197;51.632;13.700;2022-11-03T06:14:17;8.80;;;3.67;;
73859;SDS011;62197;51.632;13.700;2022-11-03T06:21:47;9.98;;;3.75;;
73859;SDS011;62197;51.632;13.700;2022-11-03T06:24:14;9.30;;;4.03;;
73859;SDS011;62197;51.632;13.700;2022-11-03T06:26:41;13.73;;;3.92;;
73859;SDS011;62197;51.632;13.700;2022-11-03T06:29:15;12.43;;;3.88;;
73859;SDS011;62197;51.632;13.700;2022-11-03T06:31:42;13.65;;;4.55;;
73859;SDS011;62197;51.632;13.700;2022-11-03T06:34:15;9.02;;;3.83;;
73859;SDS011;62197;51.632;13.700;2022-11-03T06:36:46;9.50;;;3.83;;
73859;SDS011;62197;51.632;13.700;2022-11-03T06:39:18;17.13;;;4.00;;
73859;SDS011;62197;51.632;13.700;2022-11-03T06:41:47;8.60;;;4.00;;
73859;SDS011;62197;51.632;13.700;2022-11-03T06:44:25;11.98;;;3.50;;
73859;SDS011;62197;51.632;13.700;2022-11-03T06:46:53;10.20;;;3.20;;
73859;SDS011;62197;51.632;13.700;2022-11-03T06:49:31;7.47;;;3.20;;
73859;SDS011;62197;51.632;13.700;2022-11-03T06:52:01;14.80;;;5.22;;
73859;SDS011;62197;51.632;13.700;2022-11-03T06:54:38;5.68;;;2.78;;
73859;SDS011;62197;51.632;13.700;2022-11-03T06:57:06;8.80;;;3.05;;
73859;SDS011;62197;51.632;13.700;2022-11-03T06:59:37;6.07;;;2.80;;
73859;SDS011;62197;51.632;13.700;2022-11-03T07:02:04;6.57;;;2.83;;
73859;SDS011;62197;51.632;13.700;2022-11-03T07:05:18;7.28;;;3.30;;
73859;SDS011;62197;51.632;13.700;2022-11-03T07:07:46;8.90;;;3.38;;
73859;SDS011;62197;51.632;13.700;2022-11-03T07:10:11;8.75;;;2.55;;
73859;SDS011;62197;51.632;13.700;2022-11-03T07:12:37;6.70;;;2.67;;
73859;SDS011;62197;51.632;13.700;2022-11-03T07:15:03;8.75;;;2.72;;
73859;SDS011;62197;51.632;13.700;2022-11-03T07:17:35;4.93;;;2.83;;
73859;SDS011;62197;51.632;13.700;2022-11-03T07:20:01;5.85;;;2.97;;
73859;SDS011;62197;51.632;13.700;2022-11-03T07:22:26;7.57;;;3.05;;
73859;SDS011;62197;51.632;13.700;2022-11-03T07:24:52;10.18;;;3.22;;
73859;SDS011;62197;51.632;13.700;2022-11-03T07:27:22;10.25;;;2.50;;
73859;SDS011;62197;51.632;13.700;2022-11-03T07:29:51;4.32;;;2.30;;
73859;SDS011;62197;51.632;13.700;2022-11-03T07:32:21;9.98;;;3.10;;
73859;SDS011;62197;51.632;13.700;2022-11-03T07:34:50;10.25;;;3.13;;
73859;SDS011;62197;51.632;13.700;2022-11-03T07:37:18;7.45;;;2.58;;
73859;SDS011;62197;51.632;13.700;2022-11-03T07:39:45;10.63;;;2.85;;
73859;SDS011;62197;51.632;13.700;2022-11-03T07:42:16;8.88;;;2.83;;
73859;SDS011;62197;51.632;13.700;2022-11-03T07:44:44;5.78;;;2.13;;
73859;SDS011;62197;51.632;13.700;2022-11-03T07:47:15;6.85;;;2.40;;
73859;SDS011;62197;51.632;13.700;2022-11-03T07:49:45;7.38;;;2.53;;
73859;SDS011;62197;51.632;13.700;2022-11-03T07:52:13;7.28;;;2.70;;
73859;SDS011;62197;51.632;13.700;2022-11-03T07:54:40;7.13;;;3.05;;
73859;SDS011;62197;51.632;13.700;2022-11-03T07:57:18;11.20;;;3.05;;
73859;SDS011;62197;51.632;13.700;2022-11-03T07:59:48;7.68;;;2.35;;
73859;SDS011;62197;51.632;13.700;2022-11-03T08:05:00;7.13;;;2.60;;
73859;SDS011;62197;51.632;13.700;2022-11-03T08:09:52;9.25;;;2.60;;
73859;SDS011;62197;51.632;13.700;2022-11-03T08:12:26;7.65;;;2.75;;
73859;SDS011;62197;51.632;13.700;2022-11-03T08:17:17;6.97;;;2.40;;
73859;SDS011;62197;51.632;13.700;2022-11-03T08:19:42;9.07;;;2.47;;
73859;SDS011;62197;51.632;13.700;2022-11-03T08:22:07;7.63;;;2.75;;
73859;SDS011;62197;51.632;13.700;2022-11-03T08:26:58;6.83;;;2.53;;
73859;SDS011;62197;51.632;13.700;2022-11-03T08:29:23;3.80;;;2.03;;
73859;SDS011;62197;51.632;13.700;2022-11-03T08:31:51;8.07;;;1.90;;
73859;SDS011;62197;51.632;13.700;2022-11-03T08:34:22;7.32;;;2.40;;
73859;SDS011;62197;51.632;13.700;2022-11-03T08:36:50;5.05;;;2.03;;
73859;SDS011;62197;51.632;13.700;2022-11-03T08:39:20;5.65;;;2.05;;
73859;SDS011;62197;51.632;13.700;2022-11-03T08:41:48;9.23;;;2.47;;
73859;SDS011;62197;51.632;13.700;2022-11-03T08:46:39;3.63;;;1.50;;
73859;SDS011;62197;51.632;13.700;2022-11-03T08:51:29;4.50;;;1.50;;
73859;SDS011;62197;51.632;13.700;2022-11-03T08:53:54;6.38;;;1.85;;
73859;SDS011;62197;51.632;13.700;2022-11-03T08:58:45;8.00;;;1.87;;
73859;SDS011;62197;51.632;13.700;2022-11-03T09:03:36;7.95;;;2.70;;
73859;SDS011;62197;51.632;13.700;2022-11-03T09:06:01;4.78;;;2.10;;
73859;SDS011;62197;51.632;13.700;2022-11-03T09:10:52;6.30;;;1.70;;
73859;SDS011;62197;51.632;13.700;2022-11-03T09:15:42;5.53;;;1.33;;
73859;SDS011;62197;51.632;13.700;2022-11-03T09:20:33;4.93;;;1.50;;
73859;SDS011;62197;51.632;13.700;2022-11-03T09:25:24;5.60;;;1.60;;
73859;SDS011;62197;51.632;13.700;2022-11-03T09:30:14;4.13;;;1.50;;
73859;SDS011;62197;51.632;13.700;2022-11-03T09:32:43;12.90;;;1.73;;
73859;SDS011;62197;51.632;13.700;2022-11-03T09:35:09;6.68;;;1.63;;
73859;SDS011;62197;51.632;13.700;2022-11-03T09:37:35;2.90;;;1.42;;
73859;SDS011;62197;51.632;13.700;2022-11-03T09:40:01;4.50;;;1.95;;
73859;SDS011;62197;51.632;13.700;2022-11-03T09:42:28;4.20;;;1.45;;
73859;SDS011;62197;51.632;13.700;2022-11-03T09:44:53;3.70;;;1.60;;
73859;SDS011;62197;51.632;13.700;2022-11-03T09:47:22;6.13;;;1.63;;
73859;SDS011;62197;51.632;13.700;2022-11-03T09:49:49;4.82;;;1.67;;
73859;SDS011;62197;51.632;13.700;2022-11-03T09:52:16;5.90;;;1.80;;
73859;SDS011;62197;51.632;13.700;2022-11-03T09:54:45;5.82;;;1.80;;
73859;SDS011;62197;51.632;13.700;2022-11-03T09:57:11;4.00;;;1.65;;
73859;SDS011;62197;51.632;13.700;2022-11-03T09:59:39;5.20;;;1.70;;
73859;SDS011;62197;51.632;13.700;2022-11-03T10:02:14;4.68;;;1.35;;
73859;SDS011;62197;51.632;13.700;2022-11-03T10:04:52;4.82;;;1.60;;
73859;SDS011;62197;51.632;13.700;2022-11-03T10:07:27;3.78;;;1.35;;
73859;SDS011;62197;51.632;13.700;2022-11-03T10:09:55;10.25;;;1.48;;
73859;SDS011;62197;51.632;13.700;2022-11-03T10:12:25;3.47;;;1.25;;
73859;SDS011;62197;51.632;13.700;2022-11-03T10:14:54;2.22;;;1.20;;
73859;SDS011;62197;51.632;13.700;2022-11-03T10:17:20;4.50;;;1.20;;
73859;SDS011;62197;51.632;13.700;2022-11-03T10:19:51;2.55;;;1.20;;
73859;SDS011;62197;51.632;13.700;2022-11-03T10:22:19;3.72;;;1.13;;
73859;SDS011;62197;51.632;13.700;2022-11-03T10:24:45;2.17;;;1.17;;
73859;SDS011;62197;51.632;13.700;2022-11-03T10:27:21;2.40;;;1.15;;
73859;SDS011;62197;51.632;13.700;2022-11-03T10:30:02;3.85;;;1.50;;
73859;SDS011;62197;51.632;13.700;2022-11-03T10:32:32;5.70;;;1.25;;
73859;SDS011;62197;51.632;13.700;2022-11-03T10:35:46;4.35;;;1.23;;
73859;SDS011;62197;51.632;13.700;2022-11-03T10:37:56;5.05;;;1.38;;
73859;SDS011;62197;51.632;13.700;2022-11-03T10:40:42;5.32;;;1.50;;
73859;SDS011;62197;51.632;13.700;2022-11-03T10:43:09;3.70;;;1.38;;
73859;SDS011;62197;51.632;13.700;2022-11-03T10:45:35;6.30;;;1.33;;
73859;SDS011;62197;51.632;13.700;2022-11-03T10:48:01;4.90;;;1.20;;
73859;SDS011;62197;51.632;13.700;2022-11-03T10:50:36;3.38;;;1.30;;
73859;SDS011;62197;51.632;13.700;2022-11-03T10:53:10;5.68;;;1.33;;
73859;SDS011;62197;51.632;13.700;2022-11-03T10:55:44;2.75;;;1.00;;
73859;SDS011;62197;51.632;13.700;2022-11-03T10:58:09;3.95;;;1.20;;
73859;SDS011;62197;51.632;13.700;2022-11-03T11:00:35;5.55;;;1.33;;
73859;SDS011;62197;51.632;13.700;2022-11-03T11:03:00;6.00;;;1.60;;
73859;SDS011;62197;51.632;13.700;2022-11-03T11:05:26;3.92;;;1.08;;
73859;SDS011;62197;51.632;13.700;2022-11-03T11:07:52;5.05;;;1.20;;
73859;SDS011;62197;51.632;13.700;2022-11-03T11:10:19;2.83;;;0.80;;
73859;SDS011;62197;51.632;13.700;2022-11-03T11:18:59;7.43;;;1.88;;
73859;SDS011;62197;51.632;13.700;2022-11-03T11:23:42;4.63;;;0.88;;
73859;SDS011;62197;51.632;13.700;2022-11-03T11:28:34;4.22;;;1.73;;
73859;SDS011;62197;51.632;13.700;2022-11-03T11:30:59;3.53;;;1.10;;
73859;SDS011;62197;51.632;13.700;2022-11-03T11:33:26;3.50;;;0.82;;
73859;SDS011;62197;51.632;13.700;2022-11-03T11:41:15;3.58;;;1.40;;
73859;SDS011;62197;51.632;13.700;2022-11-03T11:43:40;6.20;;;1.30;;
73859;SDS011;62197;51.632;13.700;2022-11-03T11:51:20;1.85;;;0.85;;
73859;SDS011;62197;51.632;13.700;2022-11-03T11:53:46;4.28;;;1.02;;
73859;SDS011;62197;51.632;13.700;2022-11-03T11:56:14;5.10;;;1.00;;
73859;SDS011;62197;51.632;13.700;2022-11-03T11:58:49;2.92;;;0.85;;
73859;SDS011;62197;51.632;13.700;2022-11-03T12:01:25;4.35;;;0.95;;
73859;SDS011;62197;51.632;13.700;2022-11-03T12:04:01;3.42;;;1.25;;
73859;SDS011;62197;51.632;13.700;2022-11-03T12:06:35;4.63;;;1.00;;
73859;SDS011;62197;51.632;13.700;2022-11-03T12:09:13;3.45;;;0.95;;
73859;SDS011;62197;51.632;13.700;2022-11-03T12:14:23;3.72;;;1.05;;
73859;SDS011;62197;51.632;13.700;2022-11-03T12:16:57;4.70;;;1.40;;
73859;SDS011;62197;51.632;13.700;2022-11-03T12:22:04;3.53;;;1.90;;
73859;SDS011;62197;51.632;13.700;2022-11-03T12:27:00;3.75;;;1.15;;
73859;SDS011;62197;51.632;13.700;2022-11-03T12:29:27;3.45;;;1.30;;
73859;SDS011;62197;51.632;13.700;2022-11-03T12:31:52;4.60;;;1.17;;
73859;SDS011;62197;51.632;13.700;2022-11-03T12:34:17;2.65;;;1.25;;
73859;SDS011;62197;51.632;13.700;2022-11-03T12:36:43;7.63;;;1.42;;
73859;SDS011;62197;51.632;13.700;2022-11-03T12:39:09;3.28;;;1.00;;
73859;SDS011;62197;51.632;13.700;2022-11-03T12:41:35;3.38;;;1.05;;
73859;SDS011;62197;51.632;13.700;2022-11-03T12:44:00;5.95;;;1.20;;
73859;SDS011;62197;51.632;13.700;2022-11-03T12:46:26;4.05;;;1.08;;
73859;SDS011;62197;51.632;13.700;2022-11-03T12:48:51;2.25;;;1.05;;
73859;SDS011;62197;51.632;13.700;2022-11-03T12:51:17;9.73;;;1.63;;
73859;SDS011;62197;51.632;13.700;2022-11-03T12:53:44;2.60;;;1.10;;
73859;SDS011;62197;51.632;13.700;2022-11-03T12:56:10;5.10;;;1.23;;
73859;SDS011;62197;51.632;13.700;2022-11-03T12:58:36;3.10;;;1.20;;
73859;SDS011;62197;51.632;13.700;2022-11-03T13:01:02;5.82;;;2.55;;
73859;SDS011;62197;51.632;13.700;2022-11-03T13:03:28;6.85;;;1.33;;
73859;SDS011;62197;51.632;13.700;2022-11-03T13:05:55;4.70;;;1.60;;
73859;SDS011;62197;51.632;13.700;2022-11-03T13:08:20;3.92;;;1.10;;
73859;SDS011;62197;51.632;13.700;2022-11-03T13:10:46;4.85;;;1.15;;
73859;SDS011;62197;51.632;13.700;2022-11-03T13:13:11;5.85;;;1.70;;
73859;SDS011;62197;51.632;13.700;2022-11-03T13:15:36;3.10;;;1.33;;
73859;SDS011;62197;51.632;13.700;2022-11-03T13:18:02;3.97;;;1.40;;
73859;SDS011;62197;51.632;13.700;2022-11-03T13:20:29;4.72;;;1.45;;
73859;SDS011;62197;51.632;13.700;2022-11-03T13:22:55;4.43;;;1.80;;
73859;SDS011;62197;51.632;13.700;2022-11-03T13:25:20;3.67;;;1.20;;
73859;SDS011;62197;51.632;13.700;2022-11-03T13:27:48;3.95;;;1.38;;
73859;SDS011;62197;51.632;13.700;2022-11-03T13:30:17;4.63;;;1.42;;
73859;SDS011;62197;51.632;13.700;2022-11-03T13:32:43;4.03;;;1.20;;
73859;SDS011;62197;51.632;13.700;2022-11-03T13:35:08;4.22;;;1.20;;
73859;SDS011;62197;51.632;13.700;2022-11-03T13:37:34;4.72;;;1.50;;
73859;SDS011;62197;51.632;13.700;2022-11-03T13:39:59;3.20;;;1.40;;
73859;SDS011;62197;51.632;13.700;2022-11-03T13:42:24;3.13;;;1.20;;
73859;SDS011;62197;51.632;13.700;2022-11-03T13:44:50;4.15;;;1.90;;
73859;SDS011;62197;51.632;13.700;2022-11-03T13:47:15;3.40;;;1.35;;
73859;SDS011;62197;51.632;13.700;2022-11-03T13:49:41;5.50;;;1.70;;
73859;SDS011;62197;51.632;13.700;2022-11-03T13:52:06;5.47;;;1.65;;
73859;SDS011;62197;51.632;13.700;2022-11-03T13:54:32;5.80;;;1.30;;
73859;SDS011;62197;51.632;13.700;2022-11-03T13:56:57;6.30;;;1.60;;
73859;SDS011;62197;51.632;13.700;2022-11-03T13:59:22;5.93;;;1.63;;
73859;SDS011;62197;51.632;13.700;2022-11-03T14:01:48;2.72;;;1.10;;
73859;SDS011;62197;51.632;13.700;2022-11-03T14:04:14;4.22;;;1.70;;
73859;SDS011;62197;51.632;13.700;2022-11-03T14:06:39;9.93;;;1.60;;
73859;SDS011;62197;51.632;13.700;2022-11-03T14:09:04;5.20;;;1.67;;
73859;SDS011;62197;51.632;13.700;2022-11-03T14:11:30;4.88;;;1.38;;
73859;SDS011;62197;51.632;13.700;2022-11-03T14:16:39;5.23;;;1.33;;
73859;SDS011;62197;51.632;13.700;2022-11-03T14:19:04;3.60;;;1.40;;
73859;SDS011;62197;51.632;13.700;2022-11-03T14:21:30;5.30;;;1.50;;
73859;SDS011;62197;51.632;13.700;2022-11-03T14:23:55;5.63;;;1.70;;
73859;SDS011;62197;51.632;13.700;2022-11-03T14:26:20;3.97;;;1.67;;
73859;SDS011;62197;51.632;13.700;2022-11-03T14:28:46;5.82;;;1.75;;
73859;SDS011;62197;51.632;13.700;2022-11-03T14:31:11;4.03;;;1.40;;
73859;SDS011;62197;51.632;13.700;2022-11-03T14:33:36;3.22;;;1.30;;
73859;SDS011;62197;51.632;13.700;2022-11-03T14:36:02;4.13;;;1.40;;
73859;SDS011;62197;51.632;13.700;2022-11-03T14:38:27;3.50;;;1.55;;
73859;SDS011;62197;51.632;13.700;2022-11-03T14:40:53;5.13;;;1.63;;
73859;SDS011;62197;51.632;13.700;2022-11-03T14:43:36;3.78;;;1.60;;
73859;SDS011;62197;51.632;13.700;2022-11-03T14:46:01;8.35;;;1.65;;
73859;SDS011;62197;51.632;13.700;2022-11-03T14:48:27;5.88;;;1.55;;
73859;SDS011;62197;51.632;13.700;2022-11-03T14:50:52;4.60;;;1.98;;
73859;SDS011;62197;51.632;13.700;2022-11-03T14:53:18;4.93;;;1.50;;
73859;SDS011;62197;51.632;13.700;2022-11-03T14:55:43;4.70;;;1.77;;
73859;SDS011;62197;51.632;13.700;2022-11-03T14:58:08;12.63;;;3.70;;
73859;SDS011;62197;51.632;13.700;2022-11-03T15:00:33;6.68;;;3.65;;
73859;SDS011;62197;51.632;13.700;2022-11-03T15:02:59;5.35;;;2.58;;
73859;SDS011;62197;51.632;13.700;2022-11-03T15:05:25;4.78;;;2.00;;
73859;SDS011;62197;51.632;13.700;2022-11-03T15:08:12;5.53;;;2.05;;
73859;SDS011;62197;51.632;13.700;2022-11-03T15:10:38;5.15;;;1.45;;
73859;SDS011;62197;51.632;13.700;2022-11-03T15:13:03;4.38;;;1.50;;
73859;SDS011;62197;51.632;13.700;2022-11-03T15:15:29;4.30;;;1.50;;
73859;SDS011;62197;51.632;13.700;2022-11-03T15:17:54;4.18;;;1.70;;
73859;SDS011;62197;51.632;13.700;2022-11-03T15:20:19;6.18;;;1.75;;
73859;SDS011;62197;51.632;13.700;2022-11-03T15:25:10;9.20;;;1.53;;
73859;SDS011;62197;51.632;13.700;2022-11-03T15:27:36;7.25;;;2.28;;
73859;SDS011;62197;51.632;13.700;2022-11-03T15:30:02;6.80;;;2.40;;
73859;SDS011;62197;51.632;13.700;2022-11-03T15:32:33;6.72;;;2.50;;
73859;SDS011;62197;51.632;13.700;2022-11-03T15:34:59;6.30;;;2.00;;
73859;SDS011;62197;51.632;13.700;2022-11-03T15:39:50;4.67;;;2.30;;
73859;SDS011;62197;51.632;13.700;2022-11-03T15:42:15;6.85;;;2.47;;
73859;SDS011;62197;51.632;13.700;2022-11-03T15:44:41;6.13;;;2.63;;
73859;SDS011;62197;51.632;13.700;2022-11-03T15:49:32;4.30;;;2.10;;
73859;SDS011;62197;51.632;13.700;2022-11-03T15:54:22;8.40;;;1.87;;
73859;SDS011;62197;51.632;13.700;2022-11-03T15:56:47;7.32;;;1.98;;
73859;SDS011;62197;51.632;13.700;2022-11-03T15:59:13;5.35;;;1.98;;
73859;SDS011;62197;51.632;13.700;2022-11-03T16:01:39;6.18;;;2.15;;
73859;SDS011;62197;51.632;13.700;2022-11-03T16:04:04;7.75;;;2.97;;
73859;SDS011;62197;51.632;13.700;2022-11-03T16:08:55;6.77;;;2.80;;
73859;SDS011;62197;51.632;13.700;2022-11-03T16:11:20;8.75;;;3.80;;
73859;SDS011;62197;51.632;13.700;2022-11-03T16:13:45;6.60;;;3.33;;
73859;SDS011;62197;51.632;13.700;2022-11-03T16:16:11;7.57;;;3.95;;
73859;SDS011;62197;51.632;13.700;2022-11-03T16:18:36;7.00;;;3.85;;
73859;SDS011;62197;51.632;13.700;2022-11-03T16:23:27;5.40;;;2.90;;